createdAt,value
2023-05-23T00:01:07.166Z,22.49
2023-05-23T00:03:34.828Z,22.55
2023-05-23T00:06:04.543Z,22.37
2023-05-23T00:08:32.046Z,22.72
2023-05-23T00:10:59.501Z,22.06
2023-05-23T00:13:26.973Z,22.23
2023-05-23T00:15:54.480Z,22.59
2023-05-23T00:18:24.705Z,22.65
2023-05-23T00:20:53.209Z,21.71
2023-05-23T00:23:22.547Z,22.43
2023-05-23T00:25:53.410Z,22.13
2023-05-23T00:28:21.309Z,22.30
2023-05-23T00:30:50.036Z,22.34
2023-05-23T00:33:17.794Z,22.41
2023-05-23T00:35:45.239Z,22.14
2023-05-23T00:38:12.963Z,22.02
2023-05-23T00:40:41.730Z,22.43
2023-05-23T00:43:09.305Z,22.32
2023-05-23T00:45:36.872Z,22.12
2023-05-23T00:48:07.298Z,22.26
2023-05-23T00:50:36.173Z,22.13
2023-05-23T00:53:04.862Z,22.27
2023-05-23T00:55:32.553Z,22.16
2023-05-23T00:58:01.629Z,21.95
2023-05-23T01:00:30.275Z,21.85
2023-05-23T01:02:58.053Z,21.74
2023-05-23T01:05:25.951Z,21.26
2023-05-23T01:07:53.828Z,22.04
2023-05-23T01:10:24.311Z,21.98
2023-05-23T01:13:02.006Z,22.13
2023-05-23T01:15:37.147Z,22.03
2023-05-23T01:18:09.548Z,21.79
2023-05-23T01:20:45.078Z,21.91
2023-05-23T01:23:43.997Z,21.99
2023-05-23T01:26:26.241Z,22.17
2023-05-23T01:28:59.218Z,22.13
2023-05-23T01:31:30.834Z,21.80
2023-05-23T01:33:58.904Z,22.16
2023-05-23T01:36:26.921Z,22.21
2023-05-23T01:38:54.418Z,21.98
2023-05-23T01:41:21.992Z,22.13
2023-05-23T01:43:49.513Z,22.07
2023-05-23T01:46:18.982Z,21.71
2023-05-23T01:48:47.816Z,21.54
2023-05-23T01:51:15.659Z,21.73
2023-05-23T01:53:52.292Z,21.78
2023-05-23T01:56:21.738Z,21.64
2023-05-23T01:58:49.395Z,21.80
2023-05-23T02:01:17.084Z,21.45
2023-05-23T02:03:44.562Z,21.69
2023-05-23T02:06:12.026Z,21.92
2023-05-23T02:08:39.469Z,21.56
2023-05-23T02:11:08.815Z,21.84
2023-05-23T02:13:36.308Z,21.56
2023-05-23T02:16:04.095Z,21.60
2023-05-23T02:18:31.532Z,21.48
2023-05-23T02:20:59.116Z,21.48
2023-05-23T02:23:26.734Z,21.68
2023-05-23T02:25:54.208Z,21.76
2023-05-23T02:28:22.995Z,21.83
2023-05-23T02:30:50.511Z,21.80
2023-05-23T02:33:18.021Z,21.87
2023-05-23T02:35:45.483Z,21.87
2023-05-23T02:38:13.048Z,21.75
2023-05-23T02:40:40.487Z,21.66
2023-05-23T02:43:07.928Z,21.50
2023-05-23T02:45:36.799Z,21.63
2023-05-23T02:48:04.301Z,21.19
2023-05-23T02:50:31.913Z,21.58
2023-05-23T02:52:59.357Z,21.73
2023-05-23T02:55:26.879Z,21.59
2023-05-23T02:57:54.329Z,20.97
2023-05-23T03:00:21.816Z,21.44
2023-05-23T03:02:50.630Z,21.51
2023-05-23T03:05:18.353Z,21.29
2023-05-23T03:07:45.939Z,21.14
2023-05-23T03:10:13.512Z,20.73
2023-05-23T03:12:41.076Z,20.25
2023-05-23T03:15:09.447Z,20.37
2023-05-23T03:17:37.192Z,20.80
2023-05-23T03:20:09.827Z,20.79
2023-05-23T03:22:37.511Z,21.38
2023-05-23T03:25:05.913Z,21.46
2023-05-23T03:27:33.466Z,21.29
2023-05-23T03:30:01.005Z,21.14
2023-05-23T03:32:28.581Z,21.10
2023-05-23T03:34:56.355Z,20.24
2023-05-23T03:37:25.307Z,20.92
2023-05-23T03:39:52.822Z,21.46
2023-05-23T03:42:20.361Z,21.64
2023-05-23T03:44:47.867Z,20.93
2023-05-23T03:47:15.372Z,21.11
2023-05-23T03:49:42.930Z,20.52
2023-05-23T03:52:10.445Z,20.83
2023-05-23T03:54:39.333Z,20.25
2023-05-23T03:57:07.069Z,20.02
2023-05-23T03:59:35.134Z,20.42
2023-05-23T04:02:02.709Z,19.76
2023-05-23T04:04:31.105Z,20.40
2023-05-23T04:06:59.148Z,20.29
2023-05-23T04:09:26.672Z,20.67
2023-05-23T04:11:56.097Z,19.86
2023-05-23T04:14:25.341Z,20.20
2023-05-23T04:16:52.845Z,20.37
2023-05-23T04:19:20.809Z,20.66
2023-05-23T04:21:48.263Z,20.39
2023-05-23T04:24:15.749Z,20.05
2023-05-23T04:26:43.396Z,20.61
2023-05-23T04:29:12.554Z,20.69
2023-05-23T04:31:40.041Z,20.87
2023-05-23T04:34:08.086Z,21.17
2023-05-23T04:36:38.027Z,21.18
2023-05-23T04:39:05.585Z,20.19
2023-05-23T04:41:33.226Z,20.31
2023-05-23T04:44:00.692Z,20.31
2023-05-23T04:46:29.439Z,20.93
2023-05-23T04:48:58.717Z,20.89
2023-05-23T04:51:26.190Z,20.87
2023-05-23T04:53:53.628Z,20.95
2023-05-23T04:56:22.327Z,20.60
2023-05-23T04:58:49.794Z,20.75
2023-05-23T05:01:17.401Z,20.99
2023-05-23T05:03:46.243Z,21.16
2023-05-23T05:06:14.580Z,20.93
2023-05-23T05:08:42.069Z,20.82
2023-05-23T05:11:10.384Z,20.93
2023-05-23T05:13:37.821Z,21.12
2023-05-23T05:16:05.630Z,21.23
2023-05-23T05:18:33.215Z,21.19
2023-05-23T05:21:01.959Z,21.22
2023-05-23T05:23:30.199Z,21.25
2023-05-23T05:25:57.778Z,21.13
2023-05-23T05:28:25.344Z,21.19
2023-05-23T05:30:54.390Z,21.28
2023-05-23T05:33:23.592Z,20.76
2023-05-23T05:35:52.266Z,20.42
2023-05-23T05:38:21.143Z,20.10
2023-05-23T05:40:48.555Z,20.85
2023-05-23T05:43:16.038Z,20.63
2023-05-23T05:45:43.656Z,20.38
2023-05-23T05:48:11.851Z,20.39
2023-05-23T05:50:39.898Z,20.49
2023-05-23T05:53:08.208Z,20.43
2023-05-23T05:55:36.998Z,20.14
2023-05-23T05:58:04.468Z,20.31
2023-05-23T06:00:32.064Z,20.70
2023-05-23T06:02:59.715Z,20.23
2023-05-23T06:05:27.522Z,20.57
2023-05-23T06:07:54.984Z,20.56
2023-05-23T06:10:22.437Z,20.63
2023-05-23T06:12:51.344Z,20.37
2023-05-23T06:15:19.140Z,20.56
2023-05-23T06:17:46.609Z,20.73
2023-05-23T06:20:14.204Z,21.04
2023-05-23T06:22:42.216Z,20.68
2023-05-23T06:25:10.094Z,20.74
2023-05-23T06:27:38.097Z,20.88
2023-05-23T06:30:08.219Z,21.00
2023-05-23T06:32:35.645Z,21.33
2023-05-23T06:35:03.186Z,21.17
2023-05-23T06:37:30.817Z,21.38
2023-05-23T06:39:58.473Z,21.24
2023-05-23T06:42:25.905Z,21.21
2023-05-23T06:44:53.356Z,21.08
2023-05-23T06:47:23.242Z,20.93
2023-05-23T06:49:50.762Z,20.91
2023-05-23T06:52:18.169Z,20.71
2023-05-23T06:54:45.627Z,20.64
2023-05-23T06:57:13.066Z,21.69
2023-05-23T06:59:40.563Z,22.03
2023-05-23T07:02:07.988Z,22.15
2023-05-23T07:04:36.748Z,22.20
2023-05-23T07:07:04.312Z,22.46
2023-05-23T07:09:31.786Z,22.46
2023-05-23T07:11:59.275Z,22.30
2023-05-23T07:14:26.690Z,22.44
2023-05-23T07:16:54.229Z,22.28
2023-05-23T07:19:21.747Z,22.24
2023-05-23T07:21:50.650Z,22.23
2023-05-23T07:24:18.079Z,22.52
2023-05-23T07:26:45.732Z,22.50
2023-05-23T07:29:13.172Z,21.69
2023-05-23T07:31:40.787Z,22.05
2023-05-23T07:34:08.320Z,22.41
2023-05-23T07:36:37.885Z,22.70
2023-05-23T07:39:07.003Z,22.13
2023-05-23T07:41:34.488Z,21.46
2023-05-23T07:44:01.938Z,21.32
2023-05-23T07:46:29.436Z,21.07
2023-05-23T07:48:57.148Z,21.42
2023-05-23T07:51:24.749Z,21.24
2023-05-23T07:53:52.271Z,20.78
2023-05-23T07:56:21.403Z,21.20
2023-05-23T07:58:48.848Z,21.15
2023-05-23T08:01:16.271Z,21.14
2023-05-23T08:03:43.695Z,21.05
2023-05-23T08:06:11.168Z,21.72
2023-05-23T08:08:38.733Z,20.99
2023-05-23T08:11:06.532Z,21.19
2023-05-23T08:13:35.607Z,20.69
2023-05-23T08:16:03.189Z,20.64
2023-05-23T08:18:31.142Z,20.42
2023-05-23T08:20:58.708Z,21.19
2023-05-23T08:23:26.433Z,20.96
2023-05-23T08:25:53.898Z,20.90
2023-05-23T08:28:21.368Z,20.85
2023-05-23T08:30:50.279Z,20.79
2023-05-23T08:33:17.740Z,20.65
2023-05-23T08:35:45.272Z,20.92
2023-05-23T08:38:13.128Z,21.81
2023-05-23T08:40:43.331Z,21.73
2023-05-23T08:43:12.408Z,22.24
2023-05-23T08:45:40.202Z,22.48
2023-05-23T08:48:11.788Z,22.02
2023-05-23T08:50:41.781Z,21.71
2023-05-23T08:53:10.713Z,22.03
2023-05-23T08:55:39.170Z,23.06
2023-05-23T08:58:07.245Z,23.50
2023-05-23T09:00:35.512Z,23.54
2023-05-23T09:03:03.379Z,22.47
2023-05-23T09:05:32.279Z,22.32
2023-05-23T09:07:59.794Z,22.27
2023-05-23T09:10:29.916Z,22.42
2023-05-23T09:12:58.412Z,22.87
2023-05-23T09:15:27.394Z,23.28
2023-05-23T09:17:54.986Z,23.69
2023-05-23T09:20:23.024Z,22.37
2023-05-23T09:22:51.855Z,22.78
2023-05-23T09:25:19.382Z,23.77
2023-05-23T09:27:48.338Z,24.30
2023-05-23T09:30:18.790Z,23.42
2023-05-23T09:33:00.219Z,23.54
2023-05-23T09:35:30.119Z,23.79
2023-05-23T09:38:00.220Z,22.97
2023-05-23T09:40:31.655Z,22.86
2023-05-23T09:43:03.993Z,22.60
2023-05-23T09:45:32.422Z,22.17
2023-05-23T09:48:00.006Z,22.26
2023-05-23T09:50:33.394Z,23.00
2023-05-23T09:53:02.677Z,22.61
2023-05-23T09:55:30.213Z,22.72
2023-05-23T09:58:00.265Z,22.44
2023-05-23T10:00:28.492Z,22.11
2023-05-23T10:03:01.666Z,22.04
2023-05-23T10:05:34.276Z,22.40
2023-05-23T10:08:07.362Z,21.87
2023-05-23T10:10:36.310Z,21.66
2023-05-23T10:13:06.640Z,23.11
2023-05-23T10:15:40.120Z,22.29
2023-05-23T10:18:13.911Z,22.46
2023-05-23T10:20:46.833Z,22.19
2023-05-23T10:23:17.301Z,22.89
2023-05-23T10:25:45.364Z,23.65
2023-05-23T10:28:14.729Z,23.71
2023-05-23T10:30:42.411Z,23.20
2023-05-23T10:33:11.689Z,22.91
2023-05-23T10:35:49.321Z,22.73
2023-05-23T10:38:31.815Z,22.02
2023-05-23T10:41:07.884Z,21.91
2023-05-23T10:43:41.829Z,22.14
2023-05-23T10:46:09.575Z,22.86
2023-05-23T10:48:42.593Z,23.46
2023-05-23T10:51:11.250Z,23.45
2023-05-23T10:53:42.262Z,23.63
2023-05-23T10:56:11.457Z,22.53
2023-05-23T10:58:40.778Z,23.16
2023-05-23T11:01:09.990Z,23.58
2023-05-23T11:03:39.265Z,23.13
2023-05-23T11:06:07.401Z,21.73
2023-05-23T11:08:47.543Z,21.89
2023-05-23T11:11:16.148Z,21.93
2023-05-23T11:14:00.147Z,22.14
2023-05-23T11:16:29.420Z,22.50
2023-05-23T11:19:29.018Z,22.21
2023-05-23T11:21:59.461Z,22.19
2023-05-23T11:24:51.412Z,21.92
2023-05-23T11:27:26.524Z,21.65
2023-05-23T11:30:01.829Z,21.83
2023-05-23T11:32:31.702Z,21.59
2023-05-23T11:35:02.865Z,21.82
2023-05-23T11:37:31.370Z,22.01
2023-05-23T11:40:02.062Z,22.11
2023-05-23T11:42:29.554Z,22.30
2023-05-23T11:44:58.148Z,22.50
2023-05-23T11:47:25.720Z,21.68
2023-05-23T11:49:53.581Z,22.57
2023-05-23T11:52:21.072Z,22.48
2023-05-23T11:54:48.501Z,21.94
2023-05-23T11:57:17.282Z,22.06
2023-05-23T11:59:45.653Z,22.28
2023-05-23T12:02:13.128Z,21.52
2023-05-23T12:04:41.170Z,21.42
2023-05-23T12:07:08.813Z,21.19
2023-05-23T12:09:43.654Z,22.12
2023-05-23T12:12:11.566Z,20.88
2023-05-23T12:14:44.539Z,20.39
2023-05-23T12:17:13.550Z,20.69
2023-05-23T12:19:46.241Z,20.85
2023-05-23T12:22:13.710Z,21.09
2023-05-23T12:24:46.680Z,20.53
2023-05-23T12:27:14.179Z,20.46
2023-05-23T12:29:42.952Z,20.64
2023-05-23T12:32:10.493Z,20.65
2023-05-23T12:34:42.575Z,20.57
2023-05-23T12:37:19.459Z,20.33
2023-05-23T12:39:47.942Z,20.38
2023-05-23T12:42:15.527Z,19.81
2023-05-23T12:44:45.950Z,20.44
2023-05-23T12:47:13.567Z,20.07
2023-05-23T12:49:41.151Z,19.79
2023-05-23T12:52:08.693Z,19.69
2023-05-23T12:54:36.164Z,19.59
2023-05-23T12:57:03.727Z,20.00
2023-05-23T12:59:31.314Z,20.79
2023-05-23T13:02:01.430Z,20.61
2023-05-23T13:04:31.040Z,20.33
2023-05-23T13:06:59.583Z,20.11
2023-05-23T13:09:27.136Z,19.77
2023-05-23T13:11:55.617Z,20.64
2023-05-23T13:14:23.044Z,19.46
2023-05-23T13:16:50.648Z,19.25
2023-05-23T13:19:19.573Z,19.53
2023-05-23T13:21:49.357Z,19.18
2023-05-23T13:24:17.774Z,19.16
2023-05-23T13:26:45.394Z,19.14
2023-05-23T13:29:13.173Z,18.80
2023-05-23T13:31:40.640Z,19.08
2023-05-23T13:34:08.120Z,19.00
2023-05-23T13:36:36.904Z,19.53
2023-05-23T13:39:07.549Z,19.48
2023-05-23T13:41:34.996Z,19.82
2023-05-23T13:44:02.541Z,19.12
2023-05-23T13:46:30.044Z,19.33
2023-05-23T13:48:57.575Z,18.98
2023-05-23T13:51:25.130Z,19.00
2023-05-23T13:53:53.944Z,19.01
2023-05-23T13:56:21.480Z,19.38
2023-05-23T13:58:48.933Z,19.36
2023-05-23T14:01:17.290Z,19.13
2023-05-23T14:03:44.811Z,19.30
2023-05-23T14:06:12.225Z,19.57
2023-05-23T14:08:39.756Z,19.47
2023-05-23T14:11:09.111Z,19.31
2023-05-23T14:13:36.643Z,19.41
2023-05-23T14:16:04.180Z,19.38
2023-05-23T14:18:31.658Z,19.37
2023-05-23T14:20:59.115Z,19.13
2023-05-23T14:23:26.562Z,19.04
2023-05-23T14:25:54.049Z,19.21
2023-05-23T14:28:22.831Z,19.23
2023-05-23T14:30:50.396Z,19.26
2023-05-23T14:33:18.625Z,19.17
2023-05-23T14:35:46.262Z,18.98
2023-05-23T14:38:13.760Z,18.68
2023-05-23T14:40:41.334Z,18.85
2023-05-23T14:43:08.774Z,18.71
2023-05-23T14:45:37.598Z,19.21
2023-05-23T14:48:06.036Z,18.57
2023-05-23T14:50:33.689Z,18.43
2023-05-23T14:53:01.179Z,18.24
2023-05-23T14:55:28.778Z,17.66
2023-05-23T14:57:56.621Z,17.66
2023-05-23T15:00:25.736Z,17.52
2023-05-23T15:02:54.670Z,17.08
2023-05-23T15:05:22.411Z,16.88
2023-05-23T15:07:49.895Z,16.57
2023-05-23T15:10:17.428Z,16.74
2023-05-23T15:12:44.916Z,16.62
2023-05-23T15:15:12.761Z,16.57
2023-05-23T15:17:40.339Z,16.66
2023-05-23T15:20:10.232Z,17.26
2023-05-23T15:22:39.707Z,16.82
2023-05-23T15:25:08.582Z,16.62
2023-05-23T15:27:36.347Z,16.36
2023-05-23T15:30:04.705Z,16.51
2023-05-23T15:32:32.214Z,16.25
2023-05-23T15:34:59.753Z,16.37
2023-05-23T15:37:28.511Z,16.23
2023-05-23T15:39:56.042Z,16.25
2023-05-23T15:42:23.455Z,16.40
2023-05-23T15:44:51.062Z,16.51
2023-05-23T15:47:20.638Z,16.37
2023-05-23T15:49:48.183Z,16.43
2023-05-23T15:52:15.672Z,16.02
2023-05-23T15:54:44.465Z,15.69
2023-05-23T15:57:11.934Z,15.72
2023-05-23T15:59:40.391Z,15.82
2023-05-23T16:02:10.157Z,15.96
2023-05-23T16:04:38.881Z,16.24
2023-05-23T16:07:06.469Z,15.72
2023-05-23T16:09:34.029Z,15.55
2023-05-23T16:12:02.790Z,15.96
2023-05-23T16:14:31.299Z,15.33
2023-05-23T16:17:02.750Z,15.76
2023-05-23T16:19:30.624Z,15.54
2023-05-23T16:21:58.260Z,16.12
2023-05-23T16:24:28.170Z,15.37
2023-05-23T16:26:55.921Z,15.54
2023-05-23T16:29:24.742Z,15.73
2023-05-23T16:31:52.290Z,15.72
2023-05-23T16:34:19.814Z,15.80
2023-05-23T16:36:47.412Z,15.44
2023-05-23T16:39:16.216Z,15.21
2023-05-23T16:41:43.714Z,15.13
2023-05-23T16:44:11.268Z,15.37
2023-05-23T16:46:40.318Z,15.09
2023-05-23T16:49:08.368Z,14.90
2023-05-23T16:51:35.886Z,14.97
2023-05-23T16:54:03.828Z,15.16
2023-05-23T16:56:31.263Z,15.34
2023-05-23T16:58:58.704Z,15.24
2023-05-23T17:01:26.609Z,15.32
2023-05-23T17:03:56.787Z,15.06
2023-05-23T17:06:24.444Z,15.21
2023-05-23T17:08:52.082Z,14.99
2023-05-23T17:11:19.644Z,15.76
2023-05-23T17:13:47.089Z,16.70
2023-05-23T17:16:18.037Z,17.69
2023-05-23T17:18:47.671Z,18.00
2023-05-23T17:21:16.521Z,17.80
2023-05-23T17:23:44.140Z,18.06
2023-05-23T17:26:11.796Z,15.94
2023-05-23T17:28:39.424Z,15.05
2023-05-23T17:31:07.694Z,14.77
2023-05-23T17:33:35.159Z,14.93
2023-05-23T17:36:03.493Z,14.66
2023-05-23T17:38:32.310Z,14.68
2023-05-23T17:41:00.503Z,14.55
2023-05-23T17:43:27.951Z,14.92
2023-05-23T17:45:56.722Z,14.88
2023-05-23T17:48:38.206Z,14.86
2023-05-23T17:51:13.026Z,14.95
2023-05-23T17:53:42.217Z,14.66
2023-05-23T17:56:10.289Z,14.79
2023-05-23T17:58:38.768Z,14.69
2023-05-23T18:01:07.755Z,14.39
2023-05-23T18:03:35.311Z,14.24
2023-05-23T18:06:02.773Z,14.17
2023-05-23T18:08:30.243Z,14.24
2023-05-23T18:10:59.011Z,13.92
2023-05-23T18:13:26.553Z,13.89
2023-05-23T18:15:54.004Z,14.04
2023-05-23T18:18:21.503Z,13.81
2023-05-23T18:20:48.996Z,14.40
2023-05-23T18:23:17.509Z,14.15
2023-05-23T18:25:44.998Z,14.17
2023-05-23T18:28:13.982Z,14.25
2023-05-23T18:30:41.624Z,14.75
2023-05-23T18:33:09.478Z,14.29
2023-05-23T18:35:37.089Z,14.52
2023-05-23T18:38:04.565Z,14.67
2023-05-23T18:40:32.214Z,14.74
2023-05-23T18:42:59.688Z,14.72
2023-05-23T18:45:28.422Z,15.20
2023-05-23T18:47:56.361Z,14.74
2023-05-23T18:50:24.242Z,14.80
2023-05-23T18:52:51.707Z,14.68
2023-05-23T18:55:20.170Z,15.09
2023-05-23T18:57:47.635Z,14.83
2023-05-23T19:00:16.045Z,15.40
2023-05-23T19:02:45.774Z,15.41
2023-05-23T19:05:13.801Z,14.81
2023-05-23T19:07:41.217Z,15.15
2023-05-23T19:10:09.418Z,15.52
2023-05-23T19:12:38.760Z,15.57
2023-05-23T19:15:09.217Z,14.90
2023-05-23T19:17:36.791Z,14.85
2023-05-23T19:20:06.497Z,14.91
2023-05-23T19:22:47.024Z,14.97
2023-05-23T19:25:18.333Z,15.46
2023-05-23T19:27:45.858Z,15.15
2023-05-23T19:30:13.662Z,15.46
2023-05-23T19:32:41.230Z,15.03
2023-05-23T19:35:10.598Z,15.60
2023-05-23T19:37:38.142Z,15.35
2023-05-23T19:40:07.123Z,15.06
2023-05-23T19:42:34.675Z,15.75
2023-05-23T19:45:02.315Z,15.64
2023-05-23T19:47:30.957Z,15.95
2023-05-23T19:49:58.542Z,15.46
2023-05-23T19:52:27.300Z,15.97
2023-05-23T19:54:54.746Z,15.65
2023-05-23T19:57:22.297Z,15.37
2023-05-23T19:59:49.781Z,15.29
2023-05-23T20:02:17.555Z,14.91
2023-05-23T20:04:45.627Z,15.27
2023-05-23T20:07:13.273Z,15.22
2023-05-23T20:09:42.244Z,15.22
2023-05-23T20:12:09.830Z,14.69
2023-05-23T20:14:37.353Z,14.72
2023-05-23T20:17:04.909Z,14.83
2023-05-23T20:19:32.437Z,14.58
2023-05-23T20:21:59.896Z,14.52
2023-05-23T20:24:30.384Z,14.49
2023-05-23T20:27:01.391Z,14.54
2023-05-23T20:29:28.858Z,14.99
2023-05-23T20:31:57.647Z,14.49
2023-05-23T20:34:25.190Z,14.58
2023-05-23T20:36:53.256Z,14.69
2023-05-23T20:39:22.118Z,14.53
2023-05-23T20:41:50.062Z,14.98
2023-05-23T20:44:18.920Z,14.64
2023-05-23T20:46:47.436Z,14.20
2023-05-23T20:49:15.694Z,14.28
2023-05-23T20:51:43.825Z,14.35
2023-05-23T20:54:12.820Z,14.13
2023-05-23T20:56:40.481Z,14.04
2023-05-23T20:59:08.169Z,14.32
2023-05-23T21:01:37.032Z,14.24
2023-05-23T21:04:04.583Z,13.95
2023-05-23T21:06:32.544Z,14.21
2023-05-23T21:09:00.056Z,14.31
2023-05-23T21:11:27.498Z,13.87
2023-05-23T21:13:55.333Z,13.72
2023-05-23T21:16:22.864Z,13.87
2023-05-23T21:18:51.896Z,13.69
2023-05-23T21:21:19.395Z,14.07
2023-05-23T21:23:46.861Z,14.12
2023-05-23T21:26:14.380Z,13.64
2023-05-23T21:28:41.886Z,13.71
2023-05-23T21:31:10.055Z,13.84
2023-05-23T21:33:37.508Z,13.98
2023-05-23T21:36:06.490Z,13.80
2023-05-23T21:38:37.378Z,13.77
2023-05-23T21:41:05.013Z,13.43
2023-05-23T21:43:32.438Z,13.91
2023-05-23T21:45:59.977Z,13.66
2023-05-23T21:48:27.485Z,13.84
2023-05-23T21:50:54.933Z,13.85
2023-05-23T21:53:23.717Z,13.83
2023-05-23T21:55:51.289Z,13.97
2023-05-23T21:58:18.781Z,13.74
2023-05-23T22:00:46.554Z,13.41
2023-05-23T22:03:14.058Z,13.36
2023-05-23T22:05:41.551Z,13.85
2023-05-23T22:08:09.009Z,13.49
2023-05-23T22:10:37.799Z,13.72
2023-05-23T22:13:05.283Z,13.78
2023-05-23T22:15:33.328Z,13.48
2023-05-23T22:18:00.777Z,13.49
2023-05-23T22:20:29.684Z,13.44
2023-05-23T22:22:57.154Z,13.05
2023-05-23T22:25:25.017Z,12.99
2023-05-23T22:27:53.768Z,13.26
2023-05-23T22:30:21.212Z,13.11
2023-05-23T22:32:48.694Z,13.42
2023-05-23T22:35:16.225Z,12.99
2023-05-23T22:37:43.621Z,13.30
2023-05-23T22:40:11.298Z,13.38
2023-05-23T22:42:39.911Z,13.31
2023-05-23T22:45:10.290Z,12.97
2023-05-23T22:47:37.732Z,13.05
2023-05-23T22:50:05.469Z,13.61
2023-05-23T22:52:34.540Z,13.01
2023-05-23T22:55:01.973Z,13.28
2023-05-23T22:57:29.418Z,13.82
2023-05-23T22:59:56.857Z,14.08
2023-05-23T23:02:25.770Z,14.66
2023-05-23T23:04:53.374Z,15.35
2023-05-23T23:07:20.860Z,15.39
2023-05-23T23:09:49.137Z,15.36
2023-05-23T23:12:16.700Z,15.19
2023-05-23T23:14:44.255Z,15.27
2023-05-23T23:17:13.557Z,15.76
2023-05-23T23:19:42.397Z,15.35
2023-05-23T23:22:09.832Z,14.98
2023-05-23T23:24:37.252Z,14.27
2023-05-23T23:27:05.364Z,13.88
2023-05-23T23:29:32.902Z,13.66
2023-05-23T23:32:00.811Z,13.65
2023-05-23T23:34:28.295Z,13.75
2023-05-23T23:36:57.489Z,14.15
2023-05-23T23:39:24.928Z,14.28
2023-05-23T23:41:52.376Z,14.27
2023-05-23T23:44:19.777Z,13.42
2023-05-23T23:46:47.325Z,13.87
2023-05-23T23:49:15.260Z,13.44
2023-05-23T23:51:42.700Z,13.60
2023-05-23T23:54:11.454Z,13.63
2023-05-23T23:56:38.892Z,13.80
2023-05-23T23:59:06.532Z,12.91
